sensor_id;sensor_type;location;lat;lon;timestamp;P1;durP1;ratioP1;P2;durP2;ratioP2
20482;SDS011;10400;53.198;6.592;2023-11-18T00:00:31;20.80;;;13.13;;
20482;SDS011;10400;53.198;6.592;2023-11-18T00:02:57;18.15;;;12.45;;
20482;SDS011;10400;53.198;6.592;2023-11-18T00:05:23;21.42;;;12.15;;
20482;SDS011;10400;53.198;6.592;2023-11-18T00:07:49;16.40;;;12.57;;
20482;SDS011;10400;53.198;6.592;2023-11-18T00:10:15;21.70;;;13.48;;
20482;SDS011;10400;53.198;6.592;2023-11-18T00:12:41;24.45;;;15.98;;
20482;SDS011;10400;53.198;6.592;2023-11-18T00:15:07;27.50;;;16.40;;
20482;SDS011;10400;53.198;6.592;2023-11-18T00:17:36;29.33;;;17.50;;
20482;SDS011;10400;53.198;6.592;2023-11-18T00:20:03;29.70;;;18.40;;
20482;SDS011;10400;53.198;6.592;2023-11-18T00:22:34;34.13;;;18.13;;
20482;SDS011;10400;53.198;6.592;2023-11-18T00:25:02;33.83;;;18.52;;
20482;SDS011;10400;53.198;6.592;2023-11-18T00:27:34;28.27;;;17.75;;
20482;SDS011;10400;53.198;6.592;2023-11-18T00:30:02;28.73;;;18.55;;
20482;SDS011;10400;53.198;6.592;2023-11-18T00:32:30;33.67;;;18.95;;
20482;SDS011;10400;53.198;6.592;2023-11-18T00:34:56;33.85;;;19.60;;
20482;SDS011;10400;53.198;6.592;2023-11-18T00:37:22;38.75;;;20.30;;
20482;SDS011;10400;53.198;6.592;2023-11-18T00:39:48;37.17;;;19.48;;
20482;SDS011;10400;53.198;6.592;2023-11-18T00:42:13;33.45;;;19.45;;
20482;SDS011;10400;53.198;6.592;2023-11-18T00:44:39;37.10;;;21.15;;
20482;SDS011;10400;53.198;6.592;2023-11-18T00:47:05;34.80;;;19.38;;
20482;SDS011;10400;53.198;6.592;2023-11-18T00:49:30;37.45;;;19.85;;
20482;SDS011;10400;53.198;6.592;2023-11-18T00:51:56;34.15;;;20.35;;
20482;SDS011;10400;53.198;6.592;2023-11-18T00:54:22;37.63;;;22.08;;
20482;SDS011;10400;53.198;6.592;2023-11-18T00:56:47;52.17;;;27.08;;
20482;SDS011;10400;53.198;6.592;2023-11-18T00:59:13;106.38;;;53.70;;
20482;SDS011;10400;53.198;6.592;2023-11-18T01:01:39;122.75;;;57.92;;
20482;SDS011;10400;53.198;6.592;2023-11-18T01:04:05;105.35;;;46.53;;
20482;SDS011;10400;53.198;6.592;2023-11-18T01:06:30;124.18;;;51.92;;
20482;SDS011;10400;53.198;6.592;2023-11-18T01:08:57;94.65;;;37.17;;
20482;SDS011;10400;53.198;6.592;2023-11-18T01:11:23;137.55;;;49.42;;
20482;SDS011;10400;53.198;6.592;2023-11-18T01:13:49;113.65;;;45.90;;
20482;SDS011;10400;53.198;6.592;2023-11-18T01:16:15;70.00;;;32.78;;
20482;SDS011;10400;53.198;6.592;2023-11-18T01:18:41;84.43;;;37.33;;
20482;SDS011;10400;53.198;6.592;2023-11-18T01:21:07;74.10;;;34.95;;
20482;SDS011;10400;53.198;6.592;2023-11-18T01:23:36;58.38;;;27.98;;
20482;SDS011;10400;53.198;6.592;2023-11-18T01:26:03;38.63;;;20.67;;
20482;SDS011;10400;53.198;6.592;2023-11-18T01:28:36;35.28;;;21.60;;
20482;SDS011;10400;53.198;6.592;2023-11-18T01:31:04;41.45;;;23.33;;
20482;SDS011;10400;53.198;6.592;2023-11-18T01:33:30;35.78;;;20.88;;
20482;SDS011;10400;53.198;6.592;2023-11-18T01:35:57;57.70;;;30.27;;
20482;SDS011;10400;53.198;6.592;2023-11-18T01:38:23;47.22;;;25.80;;
20482;SDS011;10400;53.198;6.592;2023-11-18T01:40:51;47.60;;;24.80;;
20482;SDS011;10400;53.198;6.592;2023-11-18T01:43:18;46.13;;;22.65;;
20482;SDS011;10400;53.198;6.592;2023-11-18T01:45:44;42.28;;;23.58;;
20482;SDS011;10400;53.198;6.592;2023-11-18T01:48:09;33.22;;;19.05;;
20482;SDS011;10400;53.198;6.592;2023-11-18T01:50:36;31.83;;;18.50;;
20482;SDS011;10400;53.198;6.592;2023-11-18T01:53:03;32.72;;;18.75;;
20482;SDS011;10400;53.198;6.592;2023-11-18T01:55:30;35.47;;;19.65;;
20482;SDS011;10400;53.198;6.592;2023-11-18T01:57:59;36.28;;;19.98;;
20482;SDS011;10400;53.198;6.592;2023-11-18T02:00:31;33.75;;;20.40;;
20482;SDS011;10400;53.198;6.592;2023-11-18T02:02:59;35.72;;;19.15;;
20482;SDS011;10400;53.198;6.592;2023-11-18T02:05:25;35.83;;;20.80;;
20482;SDS011;10400;53.198;6.592;2023-11-18T02:07:50;36.47;;;20.40;;
20482;SDS011;10400;53.198;6.592;2023-11-18T02:10:16;40.33;;;21.70;;
20482;SDS011;10400;53.198;6.592;2023-11-18T02:15:52;41.70;;;22.00;;
20482;SDS011;10400;53.198;6.592;2023-11-18T02:18:20;40.53;;;22.17;;
20482;SDS011;10400;53.198;6.592;2023-11-18T02:20:47;43.45;;;22.00;;
20482;SDS011;10400;53.198;6.592;2023-11-18T02:23:13;43.90;;;23.05;;
20482;SDS011;10400;53.198;6.592;2023-11-18T02:25:46;44.47;;;24.15;;
20482;SDS011;10400;53.198;6.592;2023-11-18T02:28:12;46.65;;;24.10;;
20482;SDS011;10400;53.198;6.592;2023-11-18T02:30:38;46.95;;;23.92;;
20482;SDS011;10400;53.198;6.592;2023-11-18T02:33:16;51.45;;;25.30;;
20482;SDS011;10400;53.198;6.592;2023-11-18T02:35:53;47.13;;;24.52;;
20482;SDS011;10400;53.198;6.592;2023-11-18T02:38:31;47.30;;;24.58;;
20482;SDS011;10400;53.198;6.592;2023-11-18T02:41:06;48.83;;;24.60;;
20482;SDS011;10400;53.198;6.592;2023-11-18T02:43:35;43.00;;;24.65;;
20482;SDS011;10400;53.198;6.592;2023-11-18T02:46:03;47.88;;;23.60;;
20482;SDS011;10400;53.198;6.592;2023-11-18T02:48:32;49.00;;;26.60;;
20482;SDS011;10400;53.198;6.592;2023-11-18T02:50:58;53.55;;;25.77;;
20482;SDS011;10400;53.198;6.592;2023-11-18T02:53:24;54.78;;;25.90;;
20482;SDS011;10400;53.198;6.592;2023-11-18T02:55:50;64.90;;;27.38;;
20482;SDS011;10400;53.198;6.592;2023-11-18T02:58:19;88.00;;;29.35;;
20482;SDS011;10400;53.198;6.592;2023-11-18T03:00:45;92.13;;;29.40;;
20482;SDS011;10400;53.198;6.592;2023-11-18T03:03:12;97.38;;;29.10;;
20482;SDS011;10400;53.198;6.592;2023-11-18T03:05:39;109.88;;;27.70;;
20482;SDS011;10400;53.198;6.592;2023-11-18T03:08:04;122.65;;;27.17;;
20482;SDS011;10400;53.198;6.592;2023-11-18T03:10:33;83.18;;;25.83;;
20482;SDS011;10400;53.198;6.592;2023-11-18T03:13:00;98.63;;;25.65;;
20482;SDS011;10400;53.198;6.592;2023-11-18T03:15:26;119.68;;;26.45;;
20482;SDS011;10400;53.198;6.592;2023-11-18T03:17:52;124.47;;;26.70;;
20482;SDS011;10400;53.198;6.592;2023-11-18T03:20:19;95.93;;;25.83;;
20482;SDS011;10400;53.198;6.592;2023-11-18T03:22:48;56.03;;;23.00;;
20482;SDS011;10400;53.198;6.592;2023-11-18T03:25:16;119.97;;;26.00;;
20482;SDS011;10400;53.198;6.592;2023-11-18T03:27:42;87.03;;;25.83;;
20482;SDS011;10400;53.198;6.592;2023-11-18T03:30:09;140.80;;;29.27;;
20482;SDS011;10400;53.198;6.592;2023-11-18T03:32:36;67.03;;;24.83;;
20482;SDS011;10400;53.198;6.592;2023-11-18T03:35:02;50.17;;;23.42;;
20482;SDS011;10400;53.198;6.592;2023-11-18T03:37:29;128.70;;;25.48;;
20482;SDS011;10400;53.198;6.592;2023-11-18T03:39:56;82.15;;;24.88;;
20482;SDS011;10400;53.198;6.592;2023-11-18T03:42:21;98.88;;;23.65;;
20482;SDS011;10400;53.198;6.592;2023-11-18T03:44:47;74.47;;;23.83;;
20482;SDS011;10400;53.198;6.592;2023-11-18T03:47:16;96.25;;;25.27;;
20482;SDS011;10400;53.198;6.592;2023-11-18T03:49:41;54.85;;;23.42;;
20482;SDS011;10400;53.198;6.592;2023-11-18T03:52:07;60.45;;;24.33;;
20482;SDS011;10400;53.198;6.592;2023-11-18T03:54:34;70.38;;;24.63;;
20482;SDS011;10400;53.198;6.592;2023-11-18T03:56:59;116.40;;;26.75;;
20482;SDS011;10400;53.198;6.592;2023-11-18T03:59:25;70.57;;;23.63;;
20482;SDS011;10400;53.198;6.592;2023-11-18T04:01:51;90.13;;;25.42;;
20482;SDS011;10400;53.198;6.592;2023-11-18T04:04:17;74.43;;;23.42;;
20482;SDS011;10400;53.198;6.592;2023-11-18T04:06:43;75.45;;;23.27;;
20482;SDS011;10400;53.198;6.592;2023-11-18T04:09:09;73.50;;;23.92;;
20482;SDS011;10400;53.198;6.592;2023-11-18T04:11:35;62.88;;;23.63;;
20482;SDS011;10400;53.198;6.592;2023-11-18T04:14:01;69.97;;;24.63;;
20482;SDS011;10400;53.198;6.592;2023-11-18T04:16:30;72.20;;;23.60;;
20482;SDS011;10400;53.198;6.592;2023-11-18T04:18:55;72.43;;;24.95;;
20482;SDS011;10400;53.198;6.592;2023-11-18T04:21:21;69.10;;;23.80;;
20482;SDS011;10400;53.198;6.592;2023-11-18T04:23:47;57.65;;;23.13;;
20482;SDS011;10400;53.198;6.592;2023-11-18T04:26:13;71.43;;;22.50;;
20482;SDS011;10400;53.198;6.592;2023-11-18T04:28:38;58.38;;;22.83;;
20482;SDS011;10400;53.198;6.592;2023-11-18T04:31:04;59.90;;;22.55;;
20482;SDS011;10400;53.198;6.592;2023-11-18T04:33:31;67.38;;;24.25;;
20482;SDS011;10400;53.198;6.592;2023-11-18T04:35:58;50.65;;;22.70;;
20482;SDS011;10400;53.198;6.592;2023-11-18T04:38:24;53.25;;;23.48;;
20482;SDS011;10400;53.198;6.592;2023-11-18T04:40:54;50.88;;;23.60;;
20482;SDS011;10400;53.198;6.592;2023-11-18T04:43:20;60.75;;;23.45;;
20482;SDS011;10400;53.198;6.592;2023-11-18T04:45:47;74.97;;;24.88;;
20482;SDS011;10400;53.198;6.592;2023-11-18T04:48:13;53.58;;;23.30;;
20482;SDS011;10400;53.198;6.592;2023-11-18T04:50:39;56.78;;;23.50;;
20482;SDS011;10400;53.198;6.592;2023-11-18T04:53:05;62.63;;;23.40;;
20482;SDS011;10400;53.198;6.592;2023-11-18T04:55:33;61.22;;;23.55;;
20482;SDS011;10400;53.198;6.592;2023-11-18T04:58:00;43.92;;;23.60;;
20482;SDS011;10400;53.198;6.592;2023-11-18T05:00:26;43.30;;;22.48;;
20482;SDS011;10400;53.198;6.592;2023-11-18T05:02:52;63.42;;;24.73;;
20482;SDS011;10400;53.198;6.592;2023-11-18T05:05:19;51.45;;;23.70;;
20482;SDS011;10400;53.198;6.592;2023-11-18T05:07:44;54.85;;;25.23;;
20482;SDS011;10400;53.198;6.592;2023-11-18T05:10:10;56.67;;;24.33;;
20482;SDS011;10400;53.198;6.592;2023-11-18T05:12:36;55.22;;;23.60;;
20482;SDS011;10400;53.198;6.592;2023-11-18T05:15:05;57.78;;;23.50;;
20482;SDS011;10400;53.198;6.592;2023-11-18T05:17:36;91.57;;;22.52;;
20482;SDS011;10400;53.198;6.592;2023-11-18T05:20:05;61.35;;;20.98;;
20482;SDS011;10400;53.198;6.592;2023-11-18T05:22:36;47.95;;;22.27;;
20482;SDS011;10400;53.198;6.592;2023-11-18T05:25:02;62.13;;;21.88;;
20482;SDS011;10400;53.198;6.592;2023-11-18T05:27:29;82.00;;;22.83;;
20482;SDS011;10400;53.198;6.592;2023-11-18T05:29:56;70.95;;;22.20;;
20482;SDS011;10400;53.198;6.592;2023-11-18T05:32:26;47.50;;;22.60;;
20482;SDS011;10400;53.198;6.592;2023-11-18T05:34:52;52.45;;;22.98;;
20482;SDS011;10400;53.198;6.592;2023-11-18T05:37:19;51.53;;;24.15;;
20482;SDS011;10400;53.198;6.592;2023-11-18T05:39:45;56.17;;;23.67;;
20482;SDS011;10400;53.198;6.592;2023-11-18T05:42:11;55.25;;;24.45;;
20482;SDS011;10400;53.198;6.592;2023-11-18T05:44:37;63.70;;;23.92;;
20482;SDS011;10400;53.198;6.592;2023-11-18T05:47:05;62.13;;;23.98;;
20482;SDS011;10400;53.198;6.592;2023-11-18T05:49:32;67.22;;;24.55;;
20482;SDS011;10400;53.198;6.592;2023-11-18T05:52:00;63.10;;;24.02;;
20482;SDS011;10400;53.198;6.592;2023-11-18T05:54:26;60.13;;;25.25;;
20482;SDS011;10400;53.198;6.592;2023-11-18T05:56:52;57.00;;;23.27;;
20482;SDS011;10400;53.198;6.592;2023-11-18T05:59:18;52.63;;;24.10;;
20482;SDS011;10400;53.198;6.592;2023-11-18T06:01:44;69.10;;;25.30;;
20482;SDS011;10400;53.198;6.592;2023-11-18T06:04:12;53.22;;;25.15;;
20482;SDS011;10400;53.198;6.592;2023-11-18T06:06:38;60.17;;;23.75;;
20482;SDS011;10400;53.198;6.592;2023-11-18T06:09:04;69.93;;;24.58;;
20482;SDS011;10400;53.198;6.592;2023-11-18T06:11:34;56.63;;;23.20;;
20482;SDS011;10400;53.198;6.592;2023-11-18T06:14:00;51.58;;;24.52;;
20482;SDS011;10400;53.198;6.592;2023-11-18T06:16:26;63.13;;;25.00;;
20482;SDS011;10400;53.198;6.592;2023-11-18T06:18:55;69.65;;;24.58;;
20482;SDS011;10400;53.198;6.592;2023-11-18T06:21:22;69.70;;;24.85;;
20482;SDS011;10400;53.198;6.592;2023-11-18T06:23:57;52.33;;;24.80;;
20482;SDS011;10400;53.198;6.592;2023-11-18T06:26:24;62.17;;;25.10;;
20482;SDS011;10400;53.198;6.592;2023-11-18T06:28:54;53.25;;;24.05;;
20482;SDS011;10400;53.198;6.592;2023-11-18T06:31:20;59.38;;;23.48;;
20482;SDS011;10400;53.198;6.592;2023-11-18T06:33:49;60.33;;;24.83;;
20482;SDS011;10400;53.198;6.592;2023-11-18T06:38:44;60.30;;;25.13;;
20482;SDS011;10400;53.198;6.592;2023-11-18T06:41:17;52.20;;;23.30;;
20482;SDS011;10400;53.198;6.592;2023-11-18T06:43:44;60.22;;;25.80;;
20482;SDS011;10400;53.198;6.592;2023-11-18T06:46:19;72.57;;;25.50;;
20482;SDS011;10400;53.198;6.592;2023-11-18T06:48:46;74.28;;;26.75;;
20482;SDS011;10400;53.198;6.592;2023-11-18T06:51:19;57.35;;;25.90;;
20482;SDS011;10400;53.198;6.592;2023-11-18T06:53:48;59.95;;;25.38;;
20482;SDS011;10400;53.198;6.592;2023-11-18T06:56:14;60.22;;;25.65;;
20482;SDS011;10400;53.198;6.592;2023-11-18T06:58:40;81.15;;;26.90;;
20482;SDS011;10400;53.198;6.592;2023-11-18T07:01:07;101.38;;;29.13;;
20482;SDS011;10400;53.198;6.592;2023-11-18T07:03:34;59.30;;;25.92;;
20482;SDS011;10400;53.198;6.592;2023-11-18T07:06:04;64.70;;;26.08;;
20482;SDS011;10400;53.198;6.592;2023-11-18T07:08:31;88.82;;;27.85;;
20482;SDS011;10400;53.198;6.592;2023-11-18T07:11:00;66.47;;;27.00;;
20482;SDS011;10400;53.198;6.592;2023-11-18T07:13:26;90.53;;;28.80;;
20482;SDS011;10400;53.198;6.592;2023-11-18T07:15:52;97.80;;;30.00;;
20482;SDS011;10400;53.198;6.592;2023-11-18T07:18:23;73.80;;;29.88;;
20482;SDS011;10400;53.198;6.592;2023-11-18T07:20:49;95.45;;;28.70;;
20482;SDS011;10400;53.198;6.592;2023-11-18T07:23:17;79.45;;;28.80;;
20482;SDS011;10400;53.198;6.592;2023-11-18T07:25:44;83.47;;;28.95;;
20482;SDS011;10400;53.198;6.592;2023-11-18T07:28:10;75.28;;;27.92;;
20482;SDS011;10400;53.198;6.592;2023-11-18T07:30:36;76.68;;;29.35;;
20482;SDS011;10400;53.198;6.592;2023-11-18T07:33:02;70.53;;;29.05;;
20482;SDS011;10400;53.198;6.592;2023-11-18T07:35:28;81.07;;;28.20;;
20482;SDS011;10400;53.198;6.592;2023-11-18T07:37:55;69.03;;;28.38;;
20482;SDS011;10400;53.198;6.592;2023-11-18T07:40:21;70.63;;;28.92;;
20482;SDS011;10400;53.198;6.592;2023-11-18T07:42:55;82.68;;;28.55;;
20482;SDS011;10400;53.198;6.592;2023-11-18T07:45:21;71.95;;;28.42;;
20482;SDS011;10400;53.198;6.592;2023-11-18T07:47:51;74.50;;;29.70;;
20482;SDS011;10400;53.198;6.592;2023-11-18T07:50:19;69.55;;;30.27;;
20482;SDS011;10400;53.198;6.592;2023-11-18T07:52:46;89.78;;;30.42;;
20482;SDS011;10400;53.198;6.592;2023-11-18T07:55:13;85.18;;;30.23;;
20482;SDS011;10400;53.198;6.592;2023-11-18T07:57:39;85.18;;;30.52;;
20482;SDS011;10400;53.198;6.592;2023-11-18T08:00:06;68.22;;;30.08;;
20482;SDS011;10400;53.198;6.592;2023-11-18T08:02:37;67.30;;;29.98;;
20482;SDS011;10400;53.198;6.592;2023-11-18T08:05:06;75.45;;;31.88;;
20482;SDS011;10400;53.198;6.592;2023-11-18T08:07:42;67.28;;;30.25;;
20482;SDS011;10400;53.198;6.592;2023-11-18T08:10:09;70.10;;;31.85;;
20482;SDS011;10400;53.198;6.592;2023-11-18T08:12:38;73.15;;;31.48;;
20482;SDS011;10400;53.198;6.592;2023-11-18T08:15:05;72.28;;;30.15;;
20482;SDS011;10400;53.198;6.592;2023-11-18T08:17:34;71.53;;;30.40;;
20482;SDS011;10400;53.198;6.592;2023-11-18T08:20:00;81.18;;;31.88;;
20482;SDS011;10400;53.198;6.592;2023-11-18T08:22:26;79.60;;;32.65;;
20482;SDS011;10400;53.198;6.592;2023-11-18T08:24:51;73.38;;;29.63;;
20482;SDS011;10400;53.198;6.592;2023-11-18T08:27:17;75.15;;;30.98;;
20482;SDS011;10400;53.198;6.592;2023-11-18T08:29:43;69.55;;;30.38;;
20482;SDS011;10400;53.198;6.592;2023-11-18T08:32:11;72.72;;;31.23;;
20482;SDS011;10400;53.198;6.592;2023-11-18T08:34:37;68.38;;;29.45;;
20482;SDS011;10400;53.198;6.592;2023-11-18T08:37:06;72.90;;;30.13;;
20482;SDS011;10400;53.198;6.592;2023-11-18T08:39:32;67.40;;;28.17;;
20482;SDS011;10400;53.198;6.592;2023-11-18T08:41:58;75.65;;;31.33;;
20482;SDS011;10400;53.198;6.592;2023-11-18T08:44:24;78.68;;;30.80;;
20482;SDS011;10400;53.198;6.592;2023-11-18T08:46:53;76.13;;;30.83;;
20482;SDS011;10400;53.198;6.592;2023-11-18T08:49:19;74.43;;;30.65;;
20482;SDS011;10400;53.198;6.592;2023-11-18T08:51:49;79.38;;;32.08;;
20482;SDS011;10400;53.198;6.592;2023-11-18T08:54:21;79.20;;;30.85;;
20482;SDS011;10400;53.198;6.592;2023-11-18T08:57:06;74.75;;;30.33;;
20482;SDS011;10400;53.198;6.592;2023-11-18T08:59:50;75.03;;;29.05;;
20482;SDS011;10400;53.198;6.592;2023-11-18T09:02:19;82.43;;;32.58;;
20482;SDS011;10400;53.198;6.592;2023-11-18T09:04:51;90.60;;;32.55;;
20482;SDS011;10400;53.198;6.592;2023-11-18T09:07:20;80.47;;;31.45;;
20482;SDS011;10400;53.198;6.592;2023-11-18T09:09:46;88.70;;;32.65;;
20482;SDS011;10400;53.198;6.592;2023-11-18T09:12:14;81.13;;;33.03;;
20482;SDS011;10400;53.198;6.592;2023-11-18T09:14:40;99.75;;;34.75;;
20482;SDS011;10400;53.198;6.592;2023-11-18T09:17:07;92.63;;;34.13;;
20482;SDS011;10400;53.198;6.592;2023-11-18T09:19:34;101.72;;;35.63;;
20482;SDS011;10400;53.198;6.592;2023-11-18T09:22:00;99.30;;;36.22;;
20482;SDS011;10400;53.198;6.592;2023-11-18T09:24:25;94.95;;;36.45;;
20482;SDS011;10400;53.198;6.592;2023-11-18T09:26:51;92.07;;;35.75;;
20482;SDS011;10400;53.198;6.592;2023-11-18T09:29:17;93.18;;;36.58;;
20482;SDS011;10400;53.198;6.592;2023-11-18T09:31:49;104.30;;;36.35;;
20482;SDS011;10400;53.198;6.592;2023-11-18T09:34:17;106.30;;;36.80;;
20482;SDS011;10400;53.198;6.592;2023-11-18T09:36:51;98.57;;;36.30;;
20482;SDS011;10400;53.198;6.592;2023-11-18T09:39:18;94.68;;;35.13;;
20482;SDS011;10400;53.198;6.592;2023-11-18T09:42:05;100.50;;;35.83;;
20482;SDS011;10400;53.198;6.592;2023-11-18T09:44:34;99.03;;;34.83;;
20482;SDS011;10400;53.198;6.592;2023-11-18T09:47:02;93.30;;;34.80;;
20482;SDS011;10400;53.198;6.592;2023-11-18T09:49:34;87.10;;;33.13;;
20482;SDS011;10400;53.198;6.592;2023-11-18T09:52:06;93.07;;;34.75;;
20482;SDS011;10400;53.198;6.592;2023-11-18T09:59:37;95.53;;;35.22;;
20482;SDS011;10400;53.198;6.592;2023-11-18T10:02:10;85.55;;;34.45;;
20482;SDS011;10400;53.198;6.592;2023-11-18T10:04:37;91.32;;;34.58;;
20482;SDS011;10400;53.198;6.592;2023-11-18T10:07:04;96.57;;;34.88;;
20482;SDS011;10400;53.198;6.592;2023-11-18T10:09:35;97.65;;;35.10;;
20482;SDS011;10400;53.198;6.592;2023-11-18T10:12:04;94.97;;;35.92;;
20482;SDS011;10400;53.198;6.592;2023-11-18T10:14:36;94.28;;;34.78;;
20482;SDS011;10400;53.198;6.592;2023-11-18T10:17:06;91.97;;;35.10;;
20482;SDS011;10400;53.198;6.592;2023-11-18T10:22:23;92.97;;;36.85;;
20482;SDS011;10400;53.198;6.592;2023-11-18T10:24:52;91.20;;;37.13;;
20482;SDS011;10400;53.198;6.592;2023-11-18T10:27:26;93.78;;;36.45;;
20482;SDS011;10400;53.198;6.592;2023-11-18T10:29:56;99.85;;;39.20;;
20482;SDS011;10400;53.198;6.592;2023-11-18T10:32:44;91.70;;;36.53;;
20482;SDS011;10400;53.198;6.592;2023-11-18T10:35:34;96.60;;;38.33;;
20482;SDS011;10400;53.198;6.592;2023-11-18T10:38:03;90.80;;;38.05;;
20482;SDS011;10400;53.198;6.592;2023-11-18T10:40:32;90.88;;;39.00;;
20482;SDS011;10400;53.198;6.592;2023-11-18T10:43:02;90.32;;;38.85;;
20482;SDS011;10400;53.198;6.592;2023-11-18T10:45:34;86.45;;;37.05;;
20482;SDS011;10400;53.198;6.592;2023-11-18T10:48:05;87.25;;;36.58;;
20482;SDS011;10400;53.198;6.592;2023-11-18T10:50:31;84.82;;;37.58;;
20482;SDS011;10400;53.198;6.592;2023-11-18T10:53:00;83.72;;;37.85;;
20482;SDS011;10400;53.198;6.592;2023-11-18T10:55:38;81.15;;;37.42;;
20482;SDS011;10400;53.198;6.592;2023-11-18T10:58:06;91.53;;;39.55;;
20482;SDS011;10400;53.198;6.592;2023-11-18T11:00:47;82.57;;;37.35;;
20482;SDS011;10400;53.198;6.592;2023-11-18T11:03:14;85.45;;;37.33;;
20482;SDS011;10400;53.198;6.592;2023-11-18T11:05:43;81.78;;;36.85;;
20482;SDS011;10400;53.198;6.592;2023-11-18T11:08:11;84.30;;;37.50;;
20482;SDS011;10400;53.198;6.592;2023-11-18T11:10:45;84.78;;;38.88;;
20482;SDS011;10400;53.198;6.592;2023-11-18T11:13:13;84.00;;;38.60;;
20482;SDS011;10400;53.198;6.592;2023-11-18T11:15:43;77.45;;;35.90;;
20482;SDS011;10400;53.198;6.592;2023-11-18T11:18:11;81.28;;;39.08;;
20482;SDS011;10400;53.198;6.592;2023-11-18T11:23:57;84.30;;;39.65;;
20482;SDS011;10400;53.198;6.592;2023-11-18T11:26:43;73.35;;;36.70;;
20482;SDS011;10400;53.198;6.592;2023-11-18T11:29:25;76.28;;;36.42;;
20482;SDS011;10400;53.198;6.592;2023-11-18T11:32:02;72.07;;;35.05;;
20482;SDS011;10400;53.198;6.592;2023-11-18T11:35:06;65.55;;;33.22;;
20482;SDS011;10400;53.198;6.592;2023-11-18T11:37:33;60.80;;;30.50;;
20482;SDS011;10400;53.198;6.592;2023-11-18T11:40:02;64.13;;;30.48;;
20482;SDS011;10400;53.198;6.592;2023-11-18T11:42:35;59.22;;;29.63;;
20482;SDS011;10400;53.198;6.592;2023-11-18T11:45:01;56.45;;;29.55;;
20482;SDS011;10400;53.198;6.592;2023-11-18T11:47:27;58.38;;;28.75;;
20482;SDS011;10400;53.198;6.592;2023-11-18T11:50:10;57.33;;;29.27;;
20482;SDS011;10400;53.198;6.592;2023-11-18T11:52:47;55.28;;;29.23;;
20482;SDS011;10400;53.198;6.592;2023-11-18T11:55:23;59.80;;;27.95;;
20482;SDS011;10400;53.198;6.592;2023-11-18T11:57:58;51.95;;;24.92;;
20482;SDS011;10400;53.198;6.592;2023-11-18T12:00:25;44.15;;;25.13;;
20482;SDS011;10400;53.198;6.592;2023-11-18T12:02:59;48.85;;;23.65;;
20482;SDS011;10400;53.198;6.592;2023-11-18T12:05:29;41.60;;;22.40;;
20482;SDS011;10400;53.198;6.592;2023-11-18T12:07:58;48.83;;;22.80;;
20482;SDS011;10400;53.198;6.592;2023-11-18T12:10:28;46.30;;;21.17;;
20482;SDS011;10400;53.198;6.592;2023-11-18T12:15:51;40.05;;;20.65;;
20482;SDS011;10400;53.198;6.592;2023-11-18T12:18:29;38.47;;;20.90;;
20482;SDS011;10400;53.198;6.592;2023-11-18T12:20:57;42.05;;;19.77;;
20482;SDS011;10400;53.198;6.592;2023-11-18T12:23:27;40.20;;;19.27;;
20482;SDS011;10400;53.198;6.592;2023-11-18T12:25:53;33.97;;;19.73;;
20482;SDS011;10400;53.198;6.592;2023-11-18T12:28:21;38.45;;;21.20;;
20482;SDS011;10400;53.198;6.592;2023-11-18T12:30:56;34.20;;;18.67;;
20482;SDS011;10400;53.198;6.592;2023-11-18T12:33:23;37.83;;;19.85;;
20482;SDS011;10400;53.198;6.592;2023-11-18T12:41:05;32.10;;;17.45;;
20482;SDS011;10400;53.198;6.592;2023-11-18T12:49:00;29.88;;;16.85;;
20482;SDS011;10400;53.198;6.592;2023-11-18T12:51:27;33.53;;;17.60;;
20482;SDS011;10400;53.198;6.592;2023-11-18T12:53:56;31.15;;;16.65;;
20482;SDS011;10400;53.198;6.592;2023-11-18T12:56:23;33.08;;;17.65;;
20482;SDS011;10400;53.198;6.592;2023-11-18T12:58:51;33.72;;;18.25;;
20482;SDS011;10400;53.198;6.592;2023-11-18T13:01:16;33.47;;;17.33;;
20482;SDS011;10400;53.198;6.592;2023-11-18T13:03:44;36.90;;;18.65;;
20482;SDS011;10400;53.198;6.592;2023-11-18T13:06:10;35.47;;;18.15;;
20482;SDS011;10400;53.198;6.592;2023-11-18T13:08:42;31.25;;;16.92;;
20482;SDS011;10400;53.198;6.592;2023-11-18T13:11:08;33.75;;;17.27;;
20482;SDS011;10400;53.198;6.592;2023-11-18T13:13:40;33.13;;;17.00;;
20482;SDS011;10400;53.198;6.592;2023-11-18T13:16:07;29.67;;;17.80;;
20482;SDS011;10400;53.198;6.592;2023-11-18T13:18:42;35.65;;;18.33;;
20482;SDS011;10400;53.198;6.592;2023-11-18T13:21:14;34.75;;;19.23;;
20482;SDS011;10400;53.198;6.592;2023-11-18T13:23:41;32.22;;;18.80;;
20482;SDS011;10400;53.198;6.592;2023-11-18T13:26:12;33.33;;;17.92;;
20482;SDS011;10400;53.198;6.592;2023-11-18T13:28:38;36.92;;;18.40;;
20482;SDS011;10400;53.198;6.592;2023-11-18T13:31:05;35.42;;;17.67;;
20482;SDS011;10400;53.198;6.592;2023-11-18T13:33:40;33.88;;;17.88;;
20482;SDS011;10400;53.198;6.592;2023-11-18T13:36:06;30.35;;;17.30;;
20482;SDS011;10400;53.198;6.592;2023-11-18T13:38:35;35.33;;;18.85;;
20482;SDS011;10400;53.198;6.592;2023-11-18T13:41:02;35.42;;;18.70;;
20482;SDS011;10400;53.198;6.592;2023-11-18T13:43:40;33.55;;;18.10;;
20482;SDS011;10400;53.198;6.592;2023-11-18T13:46:12;39.13;;;19.33;;
20482;SDS011;10400;53.198;6.592;2023-11-18T13:48:39;33.50;;;18.90;;
20482;SDS011;10400;53.198;6.592;2023-11-18T13:51:12;32.97;;;18.15;;
20482;SDS011;10400;53.198;6.592;2023-11-18T13:53:38;32.80;;;18.05;;
20482;SDS011;10400;53.198;6.592;2023-11-18T13:56:06;37.33;;;19.02;;
20482;SDS011;10400;53.198;6.592;2023-11-18T13:58:34;30.35;;;18.00;;
20482;SDS011;10400;53.198;6.592;2023-11-18T14:01:04;30.80;;;17.13;;
20482;SDS011;10400;53.198;6.592;2023-11-18T14:03:34;30.17;;;17.92;;
20482;SDS011;10400;53.198;6.592;2023-11-18T14:06:06;34.25;;;17.38;;
20482;SDS011;10400;53.198;6.592;2023-11-18T14:08:35;31.88;;;17.60;;
20482;SDS011;10400;53.198;6.592;2023-11-18T14:11:02;33.75;;;16.95;;
20482;SDS011;10400;53.198;6.592;2023-11-18T14:13:30;31.83;;;17.17;;
20482;SDS011;10400;53.198;6.592;2023-11-18T14:15:57;30.55;;;16.42;;
20482;SDS011;10400;53.198;6.592;2023-11-18T14:18:23;32.92;;;17.23;;
20482;SDS011;10400;53.198;6.592;2023-11-18T14:20:48;28.95;;;16.63;;
20482;SDS011;10400;53.198;6.592;2023-11-18T14:23:15;31.00;;;16.52;;
20482;SDS011;10400;53.198;6.592;2023-11-18T14:25:41;29.90;;;16.20;;
20482;SDS011;10400;53.198;6.592;2023-11-18T14:28:06;26.83;;;14.98;;
20482;SDS011;10400;53.198;6.592;2023-11-18T14:30:35;34.67;;;16.10;;
20482;SDS011;10400;53.198;6.592;2023-11-18T14:33:01;32.17;;;16.13;;
20482;SDS011;10400;53.198;6.592;2023-11-18T14:35:26;33.30;;;16.45;;
20482;SDS011;10400;53.198;6.592;2023-11-18T14:37:52;30.08;;;16.48;;
20482;SDS011;10400;53.198;6.592;2023-11-18T14:40:18;30.15;;;16.50;;
20482;SDS011;10400;53.198;6.592;2023-11-18T14:42:45;28.65;;;15.63;;
20482;SDS011;10400;53.198;6.592;2023-11-18T14:45:14;30.83;;;16.60;;
20482;SDS011;10400;53.198;6.592;2023-11-18T14:47:40;30.23;;;16.08;;
20482;SDS011;10400;53.198;6.592;2023-11-18T14:50:06;30.75;;;16.10;;
20482;SDS011;10400;53.198;6.592;2023-11-18T14:52:42;32.60;;;15.52;;
20482;SDS011;10400;53.198;6.592;2023-11-18T14:55:09;25.83;;;15.93;;
20482;SDS011;10400;53.198;6.592;2023-11-18T14:57:40;29.77;;;15.90;;